Time;durP1;ratioP1;P1;durP2;ratioP2;P2;SDS_P1;SDS_P2;PMS_P1;PMS_P2;Temp;Humidity;BMP_temperature;BMP_pressure;BME280_temperature;BME280_humidity;BME280_pressure;Samples;Min_cycle;Max_cycle;Signal;HPM_P1;HPM_P2
2022/08/09 00:00:09;;;;;;;2.45;1.00;;;13.00;99.70;;;;;;4981671;28;20235;-70
2022/08/09 00:02:37;;;;;;;3.78;1.55;;;13.10;99.70;;;;;;4977873;28;20019;-72
2022/08/09 00:05:06;;;;;;;3.35;1.50;;;13.20;99.60;;;;;;4980650;28;20253;-70
2022/08/09 00:07:33;;;;;;;3.78;2.00;;;13.30;99.70;;;;;;4979232;28;20015;-69
2022/08/09 00:10:00;;;;;;;3.72;1.20;;;13.30;99.90;;;;;;4978686;28;20022;-71
2022/08/09 00:12:28;;;;;;;4.57;0.90;;;13.40;99.90;;;;;;4980736;28;20029;-71
2022/08/09 00:14:56;;;;;;;6.20;1.23;;;13.40;99.90;;;;;;4978214;28;20538;-70
2022/08/09 00:17:26;;;;;;;3.28;1.05;;;13.40;99.80;;;;;;4980564;28;20030;-71
2022/08/09 00:19:53;;;;;;;4.38;1.40;;;13.50;99.80;;;;;;4977954;28;20027;-71
2022/08/09 00:22:21;;;;;;;5.03;1.30;;;13.50;99.80;;;;;;4979791;28;20502;-69
2022/08/09 00:24:48;;;;;;;2.92;1.13;;;13.50;99.80;;;;;;4979578;28;20038;-72
2022/08/09 00:27:15;;;;;;;4.22;0.93;;;13.60;99.90;;;;;;4979976;28;20835;-69
2022/08/09 00:29:42;;;;;;;2.05;0.88;;;13.70;99.60;;;;;;4979871;28;20023;-69
2022/08/09 00:32:10;;;;;;;3.78;1.13;;;13.80;99.50;;;;;;4977692;28;20101;-72
2022/08/09 00:34:37;;;;;;;6.22;2.25;;;14.00;99.40;;;;;;4979264;28;20057;-71
2022/08/09 00:37:04;;;;;;;3.80;1.10;;;14.10;99.20;;;;;;4977092;28;20054;-71
2022/08/09 00:39:32;;;;;;;6.88;1.63;;;14.20;98.90;;;;;;4980268;28;20076;-72
2022/08/09 00:41:59;;;;;;;3.58;1.25;;;14.30;98.70;;;;;;4977377;28;20387;-71
2022/08/09 00:44:27;;;;;;;3.10;1.17;;;14.30;98.60;;;;;;4980277;28;20030;-70
2022/08/09 00:46:55;;;;;;;4.03;1.23;;;14.30;98.50;;;;;;4978154;28;20663;-72
2022/08/09 00:49:22;;;;;;;5.53;1.90;;;14.40;98.80;;;;;;4980136;28;20787;-71
2022/08/09 00:51:50;;;;;;;5.13;1.17;;;14.50;98.90;;;;;;4978871;28;20030;-68
2022/08/09 00:54:17;;;;;;;6.47;1.25;;;14.60;98.80;;;;;;4978464;28;20125;-67
2022/08/09 00:56:45;;;;;;;3.65;1.65;;;14.70;98.60;;;;;;4979608;28;20045;-70
2022/08/09 00:59:12;;;;;;;2.88;0.90;;;14.60;98.90;;;;;;4977390;28;20030;-68
2022/08/09 01:01:41;;;;;;;5.38;1.23;;;14.60;99.10;;;;;;4980183;28;20472;-69
2022/08/09 01:04:44;;;;;;;3.83;1.02;;;14.70;99.00;;;;;;4977612;28;20042;-68
2022/08/09 01:07:30;;;;;;;3.28;1.20;;;14.80;99.00;;;;;;4988834;28;20027;-70
2022/08/09 01:10:30;;;;;;;3.30;1.17;;;14.90;98.70;;;;;;4962904;28;20034;-72
2022/08/09 01:13:23;;;;;;;6.22;1.52;;;14.90;98.40;;;;;;4978775;28;20641;-72
2022/08/09 01:15:53;;;;;;;2.60;0.93;;;15.00;98.20;;;;;;4979252;28;20058;-68
2022/08/09 01:18:28;;;;;;;4.18;1.23;;;15.10;98.10;;;;;;4978255;28;20018;-68
2022/08/09 01:21:27;;;;;;;2.63;0.80;;;15.00;98.10;;;;;;4978131;28;20026;-71
2022/08/09 01:24:27;;;;;;;3.55;0.82;;;15.00;97.90;;;;;;4975274;28;20060;-69
2022/08/09 01:27:11;;;;;;;3.08;0.95;;;15.10;98.10;;;;;;4976868;28;20391;-69
2022/08/09 01:29:55;;;;;;;3.75;1.17;;;15.30;97.80;;;;;;4978191;28;20030;-67
2022/08/09 01:32:26;;;;;;;5.57;1.83;;;15.50;97.60;;;;;;4976190;28;20045;-68
2022/08/09 01:34:54;;;;;;;2.00;0.98;;;15.60;97.10;;;;;;4976322;28;20641;-70
2022/08/09 01:37:24;;;;;;;3.28;1.00;;;15.80;97.20;;;;;;4975629;28;20076;-72
2022/08/09 01:39:54;;;;;;;4.22;2.33;;;16.00;96.90;;;;;;4977524;28;20822;-71
2022/08/09 01:42:22;;;;;;;2.95;0.65;;;16.10;96.60;;;;;;4975749;28;20096;-71
2022/08/09 01:44:51;;;;;;;7.93;1.35;;;16.20;96.00;;;;;;4977352;28;20169;-71
2022/08/09 01:47:20;;;;;;;6.80;0.80;;;16.30;96.10;;;;;;4979109;28;20019;-69
2022/08/09 01:49:49;;;;;;;3.15;1.40;;;16.30;95.70;;;;;;4979090;28;20029;-70
2022/08/09 01:52:18;;;;;;;2.53;0.70;;;16.40;96.00;;;;;;4978753;28;20033;-69
2022/08/09 01:54:56;;;;;;;7.30;1.35;;;16.50;95.70;;;;;;4977364;28;20026;-70
2022/08/09 01:57:40;;;;;;;3.58;1.10;;;16.60;95.20;;;;;;4976337;28;20050;-70
2022/08/09 02:00:09;;;;;;;4.53;0.73;;;16.70;94.90;;;;;;4976977;28;20037;-72
2022/08/09 02:02:42;;;;;;;3.38;0.98;;;16.80;94.60;;;;;;4976370;28;20381;-72
2022/08/09 02:05:16;;;;;;;4.35;0.88;;;16.80;94.10;;;;;;4978316;28;20064;-70
2022/08/09 02:07:53;;;;;;;4.75;1.10;;;16.80;93.90;;;;;;4977226;28;20031;-71
2022/08/09 02:10:26;;;;;;;3.92;1.00;;;16.70;94.10;;;;;;4977790;28;20081;-73
2022/08/09 02:12:55;;;;;;;2.78;1.08;;;16.70;94.50;;;;;;4978389;28;20026;-70
2022/08/09 02:15:23;;;;;;;7.60;2.03;;;16.70;94.50;;;;;;4973173;28;20072;-73
2022/08/09 02:17:53;;;;;;;3.40;2.28;;;16.70;94.50;;;;;;4977979;28;20080;-72
2022/08/09 02:20:21;;;;;;;4.68;1.50;;;16.80;94.50;;;;;;4979183;28;20073;-73
2022/08/09 02:22:53;;;;;;;2.72;0.95;;;17.00;94.10;;;;;;4978247;28;20026;-70
2022/08/09 02:25:26;;;;;;;6.90;1.98;;;17.00;93.70;;;;;;4978818;28;20038;-71
2022/08/09 02:28:19;;;;;;;6.15;1.20;;;17.20;93.70;;;;;;4978502;28;20094;-71
2022/08/09 02:31:04;;;;;;;6.65;1.70;;;17.40;93.40;;;;;;4982083;28;20030;-71
2022/08/09 02:33:37;;;;;;;8.70;1.38;;;17.50;92.90;;;;;;4957802;28;20031;-72
2022/08/09 02:36:08;;;;;;;6.85;1.65;;;17.60;92.80;;;;;;4977239;28;20027;-72
2022/08/09 02:38:52;;;;;;;5.28;1.40;;;17.80;92.60;;;;;;4977129;28;20064;-71
2022/08/09 02:41:39;;;;;;;2.30;1.00;;;17.90;92.30;;;;;;4979241;28;20014;-72
2022/08/09 02:44:14;;;;;;;4.57;0.90;;;18.30;91.70;;;;;;4979146;28;20034;-71
2022/08/09 02:46:43;;;;;;;5.05;1.60;;;18.50;91.10;;;;;;4977044;28;20080;-72
2022/08/09 02:49:15;;;;;;;3.03;0.80;;;18.80;90.80;;;;;;4979229;28;20058;-69
2022/08/09 02:51:44;;;;;;;3.03;1.20;;;19.10;90.40;;;;;;4977575;28;20024;-71
2022/08/09 02:54:14;;;;;;;4.78;1.05;;;19.50;89.70;;;;;;4993444;28;20567;-71
2022/08/09 02:56:46;;;;;;;8.02;1.85;;;19.70;89.30;;;;;;4976605;28;20070;-72
2022/08/09 02:59:15;;;;;;;3.83;1.17;;;20.00;89.00;;;;;;4978048;28;20026;-72
2022/08/09 03:01:43;;;;;;;3.33;1.00;;;20.00;88.90;;;;;;4977969;28;20252;-72
2022/08/09 03:04:12;;;;;;;6.35;1.23;;;20.10;88.10;;;;;;4978478;28;20030;-71
2022/08/09 03:06:42;;;;;;;3.00;1.65;;;20.10;87.60;;;;;;4974146;28;20034;-69
2022/08/09 03:09:11;;;;;;;6.32;1.67;;;20.30;87.50;;;;;;4958195;28;20054;-69
2022/08/09 03:11:39;;;;;;;4.78;0.93;;;20.30;87.80;;;;;;4972131;28;20050;-70
2022/08/09 03:14:09;;;;;;;3.58;1.00;;;20.30;87.10;;;;;;4976236;28;20049;-70
2022/08/09 03:16:38;;;;;;;3.00;0.90;;;20.10;87.00;;;;;;4975111;28;20050;-71
2022/08/09 03:19:06;;;;;;;4.13;1.23;;;20.00;87.40;;;;;;4975505;28;20029;-70
2022/08/09 03:21:35;;;;;;;4.50;1.50;;;20.30;87.30;;;;;;4977535;28;20027;-73
2022/08/09 03:24:02;;;;;;;4.03;1.70;;;20.80;85.10;;;;;;4979655;28;20041;-72
2022/08/09 03:26:30;;;;;;;5.60;2.13;;;21.30;83.40;;;;;;4981812;28;20037;-72
2022/08/09 03:28:58;;;;;;;4.43;1.30;;;21.70;83.10;;;;;;4979432;28;20109;-71
2022/08/09 03:31:26;;;;;;;2.80;1.38;;;22.00;81.60;;;;;;4981731;28;20029;-70
2022/08/09 03:33:55;;;;;;;3.50;1.00;;;22.10;81.80;;;;;;4973686;28;20042;-70
2022/08/09 03:36:23;;;;;;;4.07;1.17;;;22.10;80.70;;;;;;4977416;28;20030;-70
2022/08/09 03:38:51;;;;;;;4.18;1.33;;;22.30;80.10;;;;;;4980972;28;20510;-71
2022/08/09 03:41:18;;;;;;;4.40;1.40;;;22.50;79.30;;;;;;4980980;28;20023;-69
2022/08/09 03:43:46;;;;;;;2.33;0.60;;;22.80;78.90;;;;;;4980341;28;20880;-69
2022/08/09 03:46:14;;;;;;;5.95;1.27;;;23.00;78.20;;;;;;4978689;28;20101;-70
2022/08/09 03:48:42;;;;;;;6.15;1.55;;;23.20;77.40;;;;;;4979907;28;20045;-67
2022/08/09 03:51:10;;;;;;;3.45;1.10;;;23.30;76.50;;;;;;4980458;28;20084;-69
2022/08/09 03:53:39;;;;;;;4.35;1.05;;;23.20;76.10;;;;;;4981099;28;20032;-71
2022/08/09 03:56:07;;;;;;;5.07;1.10;;;23.10;77.40;;;;;;4979673;28;20026;-70
2022/08/09 03:58:35;;;;;;;3.00;1.60;;;22.70;77.40;;;;;;4980168;28;20039;-71
2022/08/09 04:01:03;;;;;;;8.48;1.63;;;22.30;78.80;;;;;;4980356;28;20497;-69
2022/08/09 04:03:32;;;;;;;4.45;1.30;;;22.40;77.60;;;;;;4980554;28;20441;-69
2022/08/09 04:05:59;;;;;;;5.38;1.10;;;22.60;76.80;;;;;;4979654;28;20357;-68
2022/08/09 04:08:26;;;;;;;3.40;0.80;;;22.50;76.90;;;;;;4978571;28;20037;-73
2022/08/09 04:10:54;;;;;;;4.63;0.90;;;22.50;77.90;;;;;;4980066;28;20153;-70
2022/08/09 04:13:21;;;;;;;5.80;1.15;;;22.70;77.30;;;;;;4979867;28;20105;-68
2022/08/09 04:15:48;;;;;;;6.28;1.30;;;22.70;77.00;;;;;;4979841;28;20944;-70
2022/08/09 04:18:16;;;;;;;2.78;1.40;;;22.60;77.10;;;;;;4978341;28;20414;-69
2022/08/09 04:20:43;;;;;;;2.20;1.13;;;22.70;77.50;;;;;;4979648;28;20086;-71
2022/08/09 04:23:10;;;;;;;2.17;1.30;;;22.70;76.10;;;;;;4979561;28;20387;-69
2022/08/09 04:25:38;;;;;;;8.15;1.88;;;22.80;76.30;;;;;;4980040;28;20032;-69
2022/08/09 04:28:05;;;;;;;3.85;1.27;;;22.80;75.80;;;;;;4979686;28;21066;-68
2022/08/09 04:30:32;;;;;;;4.18;1.20;;;22.90;75.40;;;;;;4978871;28;20044;-68
2022/08/09 04:33:00;;;;;;;5.10;1.00;;;22.90;75.30;;;;;;4978812;28;20041;-70
2022/08/09 04:35:28;;;;;;;4.05;1.20;;;22.90;74.70;;;;;;4978830;28;20100;-68
2022/08/09 04:37:55;;;;;;;3.35;0.80;;;22.60;75.50;;;;;;4977186;28;20038;-70
2022/08/09 04:40:46;;;;;;;3.88;1.35;;;22.40;75.40;;;;;;4977934;28;20053;-69
2022/08/09 04:43:09;;;;;;;3.28;1.02;;;22.50;75.50;;;;;;4979362;28;20417;-72
2022/08/09 04:45:38;;;;;;;4.80;1.35;;;22.60;74.90;;;;;;4972792;28;20035;-69
2022/08/09 04:48:05;;;;;;;3.28;0.98;;;22.70;75.10;;;;;;4958715;28;20676;-70
2022/08/09 04:50:33;;;;;;;2.08;0.70;;;22.60;75.50;;;;;;4958373;28;20035;-68
2022/08/09 04:53:00;;;;;;;8.15;1.58;;;22.70;75.50;;;;;;4959769;28;20029;-68
2022/08/09 04:55:27;;;;;;;4.90;1.10;;;22.80;75.60;;;;;;4975224;28;20240;-67
2022/08/09 04:57:55;;;;;;;2.55;0.80;;;22.60;75.10;;;;;;4976409;28;20049;-70
2022/08/09 05:00:22;;;;;;;5.60;2.13;;;22.30;75.70;;;;;;4974677;28;20030;-71
2022/08/09 05:02:49;;;;;;;4.90;0.70;;;22.00;76.00;;;;;;4978146;28;20015;-71
2022/08/09 05:05:17;;;;;;;4.88;0.80;;;21.90;77.20;;;;;;4977525;28;20046;-71
2022/08/09 05:07:44;;;;;;;2.05;0.75;;;21.90;77.60;;;;;;4974809;28;20022;-69
2022/08/09 05:10:11;;;;;;;3.65;0.70;;;21.80;77.40;;;;;;4974879;28;20026;-68
2022/08/09 05:12:39;;;;;;;4.53;1.08;;;21.70;77.50;;;;;;4976124;28;20049;-69
2022/08/09 05:15:06;;;;;;;4.10;1.10;;;21.80;77.40;;;;;;4975162;28;20018;-71
2022/08/09 05:17:34;;;;;;;3.25;1.08;;;22.10;76.80;;;;;;4975548;28;20049;-70
2022/08/09 05:20:01;;;;;;;4.78;0.90;;;22.10;77.30;;;;;;4976403;28;20442;-69
2022/08/09 05:22:28;;;;;;;2.85;1.13;;;22.40;78.20;;;;;;4974354;28;20023;-70
2022/08/09 05:24:56;;;;;;;2.80;1.10;;;23.00;74.80;;;;;;4974915;28;20745;-68
2022/08/09 05:27:23;;;;;;;5.40;0.80;;;23.00;74.20;;;;;;4978081;28;20128;-70
2022/08/09 05:29:50;;;;;;;4.35;0.90;;;23.00;74.60;;;;;;4976885;28;20435;-67
2022/08/09 05:32:17;;;;;;;6.30;1.10;;;23.10;74.90;;;;;;4977951;28;20022;-73
2022/08/09 05:34:45;;;;;;;6.88;1.05;;;23.10;75.30;;;;;;4977117;28;20026;-69
2022/08/09 05:37:12;;;;;;;3.40;0.77;;;22.80;75.30;;;;;;4977527;28;20022;-70
2022/08/09 05:39:40;;;;;;;4.68;1.00;;;22.20;76.70;;;;;;4977656;28;20057;-71
2022/08/09 05:42:08;;;;;;;5.03;1.00;;;21.80;77.40;;;;;;4978041;28;20029;-71
2022/08/09 05:44:36;;;;;;;3.80;0.82;;;21.40;78.00;;;;;;4976416;28;20039;-71
2022/08/09 05:47:03;;;;;;;4.55;0.90;;;21.00;79.00;;;;;;4972573;28;20114;-70
2022/08/09 05:49:30;;;;;;;3.10;0.80;;;20.70;78.80;;;;;;4977147;28;20049;-72
2022/08/09 05:51:57;;;;;;;4.35;0.63;;;20.60;79.40;;;;;;4976907;28;20105;-72
2022/08/09 05:54:25;;;;;;;3.88;1.00;;;20.60;79.40;;;;;;4978347;28;20028;-72
2022/08/09 05:56:52;;;;;;;3.97;0.90;;;20.20;80.70;;;;;;4977083;28;20050;-71
2022/08/09 05:59:20;;;;;;;6.60;1.10;;;19.50;82.80;;;;;;4976883;28;20032;-70
2022/08/09 06:01:48;;;;;;;5.25;1.15;;;19.00;84.00;;;;;;4976313;28;20014;-69
2022/08/09 06:04:15;;;;;;;5.53;1.23;;;18.50;85.40;;;;;;4974766;28;20034;-72
2022/08/09 06:06:42;;;;;;;3.80;1.00;;;18.30;86.70;;;;;;4975996;28;20042;-71
2022/08/09 06:09:10;;;;;;;2.95;1.65;;;18.00;87.30;;;;;;4976121;28;20048;-73
2022/08/09 06:11:37;;;;;;;5.60;1.42;;;17.70;88.40;;;;;;4976590;28;20080;-69
2022/08/09 06:14:07;;;;;;;5.68;1.83;;;17.80;88.50;;;;;;4971833;28;20127;-68
2022/08/09 06:16:35;;;;;;;3.72;1.20;;;18.00;88.40;;;;;;4976759;28;20026;-71
2022/08/09 06:19:02;;;;;;;3.00;0.90;;;18.60;87.50;;;;;;4975868;28;20041;-71
2022/08/09 06:21:29;;;;;;;2.75;1.00;;;19.20;85.40;;;;;;4976815;28;20077;-71
2022/08/09 06:23:57;;;;;;;5.07;0.95;;;19.50;85.60;;;;;;4975493;28;20034;-69
2022/08/09 06:26:24;;;;;;;4.07;1.30;;;19.90;84.40;;;;;;4974809;28;20030;-69
2022/08/09 06:28:53;;;;;;;5.25;1.25;;;20.10;82.40;;;;;;4975312;28;20058;-70
2022/08/09 06:31:21;;;;;;;7.13;0.90;;;20.10;82.80;;;;;;4976955;28;20099;-69
2022/08/09 06:33:48;;;;;;;3.90;1.13;;;20.00;82.60;;;;;;4976383;28;20057;-69
2022/08/09 06:36:16;;;;;;;2.00;0.90;;;19.60;83.40;;;;;;4990924;28;20111;-69
2022/08/09 06:38:44;;;;;;;2.85;0.82;;;19.20;84.10;;;;;;4976927;28;20030;-72
2022/08/09 06:41:11;;;;;;;4.32;1.50;;;18.80;85.30;;;;;;4975036;28;20092;-69
2022/08/09 06:43:39;;;;;;;7.10;3.15;;;18.30;87.20;;;;;;4976725;28;20038;-70
2022/08/09 06:46:06;;;;;;;6.82;2.47;;;18.00;88.40;;;;;;4973451;28;20176;-72
2022/08/09 06:48:34;;;;;;;5.10;1.65;;;17.70;89.30;;;;;;4976328;28;20109;-69
2022/08/09 06:51:01;;;;;;;4.38;1.65;;;17.30;90.00;;;;;;4974989;28;20026;-71
2022/08/09 06:53:28;;;;;;;5.38;2.33;;;16.80;90.60;;;;;;4976349;28;20045;-69
2022/08/09 06:55:58;;;;;;;3.03;1.30;;;16.60;91.90;;;;;;4975683;28;20045;-73
2022/08/09 06:58:25;;;;;;;4.45;0.80;;;16.30;92.00;;;;;;4975567;28;20157;-73
2022/08/09 07:00:52;;;;;;;3.28;0.80;;;16.00;92.30;;;;;;4974196;28;20029;-71
2022/08/09 07:03:20;;;;;;;4.55;0.85;;;15.70;92.90;;;;;;4977586;28;20105;-71
2022/08/09 07:05:47;;;;;;;2.80;1.00;;;15.50;93.20;;;;;;4977646;28;20499;-68
2022/08/09 07:08:14;;;;;;;3.88;0.98;;;15.30;93.70;;;;;;4976896;28;20026;-71
2022/08/09 07:10:42;;;;;;;6.22;0.82;;;15.20;94.00;;;;;;4976622;28;20053;-70
2022/08/09 07:13:09;;;;;;;3.50;1.00;;;15.10;94.20;;;;;;4976695;28;20150;-70
2022/08/09 07:15:37;;;;;;;4.80;1.13;;;14.90;94.50;;;;;;4975012;28;20058;-69
2022/08/09 07:18:04;;;;;;;5.45;1.05;;;14.70;94.70;;;;;;4974711;28;20089;-68
2022/08/09 07:20:31;;;;;;;2.65;0.77;;;14.70;95.00;;;;;;4971044;28;20054;-68
2022/08/09 07:22:59;;;;;;;4.38;2.50;;;14.60;95.30;;;;;;4964884;28;20101;-68
2022/08/09 07:25:26;;;;;;;4.50;1.52;;;14.50;95.50;;;;;;4977191;28;20118;-70
2022/08/09 07:27:54;;;;;;;4.82;0.90;;;14.50;95.70;;;;;;4975495;28;20483;-71
2022/08/09 07:30:22;;;;;;;4.63;1.20;;;14.40;95.70;;;;;;4976075;28;20542;-70
2022/08/09 07:32:49;;;;;;;3.42;0.73;;;14.30;96.00;;;;;;4967978;28;20088;-69
2022/08/09 07:35:16;;;;;;;2.28;0.63;;;14.20;96.20;;;;;;4976043;28;20914;-70
2022/08/09 07:37:44;;;;;;;2.33;0.65;;;14.10;96.30;;;;;;4974404;28;20042;-72
2022/08/09 07:40:14;;;;;;;1.33;0.80;;;14.00;96.40;;;;;;4976522;28;20015;-72
2022/08/09 07:42:57;;;;;;;3.03;0.77;;;14.00;96.60;;;;;;4975769;28;20104;-71
2022/08/09 07:45:26;;;;;;;1.58;0.75;;;13.90;96.90;;;;;;4978196;28;20042;-67
2022/08/09 07:47:55;;;;;;;1.75;0.77;;;13.90;96.90;;;;;;4975325;28;20029;-69
2022/08/09 07:50:24;;;;;;;3.25;0.90;;;13.80;97.10;;;;;;4989325;28;20030;-71
2022/08/09 07:52:53;;;;;;;1.80;0.93;;;13.70;97.30;;;;;;4970675;28;20038;-70
2022/08/09 07:55:21;;;;;;;2.58;0.98;;;13.70;97.50;;;;;;4972569;28;20375;-70
2022/08/09 07:57:49;;;;;;;5.65;3.55;;;13.60;97.60;;;;;;4972173;28;20097;-72
2022/08/09 08:00:18;;;;;;;3.58;1.13;;;13.60;97.80;;;;;;4975938;28;20460;-72
2022/08/09 08:02:47;;;;;;;3.17;1.33;;;13.60;98.10;;;;;;4975922;28;20025;-72
2022/08/09 08:05:14;;;;;;;1.80;0.90;;;13.50;98.30;;;;;;4991457;28;20507;-69
2022/08/09 08:07:42;;;;;;;3.30;1.10;;;13.50;98.40;;;;;;4975988;28;20046;-69
2022/08/09 08:10:10;;;;;;;5.32;2.40;;;13.40;98.70;;;;;;4979353;28;20030;-73
2022/08/09 08:12:40;;;;;;;1.70;1.05;;;13.40;98.70;;;;;;4981174;28;20361;-70
2022/08/09 08:15:08;;;;;;;1.10;0.98;;;13.40;99.10;;;;;;4978636;28;20035;-72
2022/08/09 08:17:36;;;;;;;1.42;0.90;;;13.40;99.30;;;;;;4980522;28;20026;-70
2022/08/09 08:20:04;;;;;;;2.45;1.40;;;13.50;99.30;;;;;;4979723;28;20050;-73
2022/08/09 08:22:32;;;;;;;2.25;1.40;;;13.50;99.40;;;;;;4980142;28;20361;-70
2022/08/09 08:24:59;;;;;;;5.25;2.30;;;13.60;99.90;;;;;;4978696;28;20046;-71
2022/08/09 08:27:26;;;;;;;2.42;1.65;;;13.60;99.90;;;;;;4979619;28;20029;-71
2022/08/09 08:29:54;;;;;;;5.93;3.53;;;13.60;99.90;;;;;;4978890;28;20023;-69
2022/08/09 08:32:21;;;;;;;3.90;1.13;;;13.60;99.90;;;;;;4975465;28;20061;-71
2022/08/09 08:34:49;;;;;;;2.15;1.20;;;13.50;99.90;;;;;;4987882;28;20030;-71
2022/08/09 08:37:16;;;;;;;2.08;1.05;;;13.50;99.90;;;;;;4973324;28;20026;-70
2022/08/09 08:39:45;;;;;;;3.63;1.75;;;13.40;99.90;;;;;;4979778;28;20034;-71
2022/08/09 08:42:13;;;;;;;5.47;2.78;;;13.40;99.90;;;;;;4979206;28;20034;-73
2022/08/09 08:44:42;;;;;;;3.25;1.23;;;13.30;99.90;;;;;;4979897;28;20105;-71
2022/08/09 08:47:15;;;;;;;3.08;1.02;;;13.30;99.90;;;;;;4978909;28;20023;-73
2022/08/09 08:49:43;;;;;;;4.68;1.52;;;13.40;99.90;;;;;;4977418;28;20030;-73
2022/08/09 08:52:10;;;;;;;1.63;0.80;;;13.30;99.90;;;;;;4978314;28;20065;-72
2022/08/09 08:54:38;;;;;;;5.88;3.15;;;13.30;99.90;;;;;;4974978;28;20122;-72
2022/08/09 08:57:09;;;;;;;2.60;1.50;;;13.40;99.90;;;;;;4970958;28;20124;-68
2022/08/09 08:59:39;;;;;;;2.85;1.58;;;13.30;99.90;;;;;;4979779;28;20471;-72
2022/08/09 09:02:35;;;;;;;3.53;0.90;;;13.30;99.90;;;;;;4976718;28;20017;-70
2022/08/09 09:05:03;;;;;;;2.42;1.00;;;13.40;99.90;;;;;;4987396;28;20581;-71
2022/08/09 09:07:49;;;;;;;5.18;1.10;;;13.30;99.90;;;;;;4978341;28;20089;-71
2022/08/09 09:10:21;;;;;;;2.33;1.23;;;13.30;99.90;;;;;;4973714;28;20226;-71
2022/08/09 09:12:49;;;;;;;5.13;1.83;;;13.20;99.90;;;;;;4976392;28;20048;-72
2022/08/09 09:15:16;;;;;;;2.85;1.73;;;13.20;99.90;;;;;;4973357;28;20072;-71
2022/08/09 09:17:43;;;;;;;1.45;1.00;;;13.20;99.90;;;;;;4979001;28;20515;-71
2022/08/09 09:20:17;;;;;;;1.63;0.98;;;13.10;99.90;;;;;;4975910;28;20034;-71
2022/08/09 09:23:07;;;;;;;4.82;1.92;;;13.10;99.90;;;;;;4979271;28;20097;-72
2022/08/09 09:25:36;;;;;;;5.82;1.83;;;13.10;99.90;;;;;;4960081;28;20038;-71
2022/08/09 09:28:08;;;;;;;4.50;2.97;;;13.00;99.90;;;;;;4989335;28;20065;-72
2022/08/09 09:31:10;;;;;;;3.17;1.40;;;12.90;99.90;;;;;;4977394;28;20194;-72
2022/08/09 09:33:38;;;;;;;1.85;0.73;;;12.90;99.90;;;;;;4971505;28;20041;-72
2022/08/09 09:36:07;;;;;;;4.40;1.50;;;12.90;99.90;;;;;;4973511;28;20022;-71
2022/08/09 09:38:48;;;;;;;3.95;1.50;;;12.80;99.90;;;;;;4979050;28;20514;-71
2022/08/09 09:41:27;;;;;;;2.47;1.45;;;12.90;99.90;;;;;;4975141;28;20113;-72
2022/08/09 09:43:59;;;;;;;1.63;1.10;;;12.90;99.90;;;;;;4994277;28;20030;-72
2022/08/09 09:46:37;;;;;;;2.70;1.20;;;12.90;99.90;;;;;;4973683;28;20077;-73
2022/08/09 09:49:10;;;;;;;2.90;0.95;;;13.00;99.90;;;;;;4975499;28;20502;-71
2022/08/09 09:51:39;;;;;;;1.90;1.20;;;13.00;99.90;;;;;;5004576;28;20563;-74
2022/08/09 09:54:17;;;;;;;1.88;1.25;;;12.90;99.90;;;;;;4977036;28;20030;-70
2022/08/09 09:56:47;;;;;;;1.73;1.15;;;13.00;99.90;;;;;;4978942;28;20038;-71
2022/08/09 09:59:32;;;;;;;3.45;1.00;;;13.00;99.90;;;;;;4977302;28;20058;-71
2022/08/09 10:02:00;;;;;;;2.67;0.98;;;13.10;99.90;;;;;;4975547;28;20030;-74
2022/08/09 10:04:28;;;;;;;2.15;0.73;;;13.10;99.90;;;;;;4977235;28;20121;-72
2022/08/09 10:06:55;;;;;;;4.80;1.25;;;13.00;99.90;;;;;;4975965;28;20015;-71
2022/08/09 10:09:23;;;;;;;1.42;0.80;;;13.10;99.90;;;;;;4977264;28;20025;-70
2022/08/09 10:12:01;;;;;;;4.03;0.93;;;13.00;99.90;;;;;;4975951;28;20109;-72
2022/08/09 10:14:30;;;;;;;4.38;1.00;;;12.90;99.90;;;;;;4976468;28;20022;-72
2022/08/09 10:16:57;;;;;;;3.13;1.02;;;12.80;99.90;;;;;;4977304;28;20531;-73
2022/08/09 10:19:37;;;;;;;4.63;1.30;;;12.70;99.90;;;;;;4975508;28;20065;-73
2022/08/09 10:22:05;;;;;;;1.98;1.45;;;12.60;99.90;;;;;;4976349;28;20113;-70
2022/08/09 10:24:33;;;;;;;2.40;0.68;;;12.50;99.90;;;;;;4972435;28;20159;-69
2022/08/09 10:27:01;;;;;;;3.70;1.40;;;12.40;99.90;;;;;;4976038;28;20026;-69
2022/08/09 10:29:29;;;;;;;2.20;0.70;;;12.40;99.90;;;;;;4972222;28;20092;-73
2022/08/09 10:31:56;;;;;;;2.33;1.67;;;12.40;99.90;;;;;;4975931;28;20388;-72
2022/08/09 10:34:24;;;;;;;2.85;1.40;;;12.30;99.90;;;;;;4975102;28;20054;-74
2022/08/09 10:36:55;;;;;;;3.65;2.30;;;12.30;99.90;;;;;;4976365;28;20475;-69
2022/08/09 10:39:24;;;;;;;2.15;1.40;;;12.20;99.90;;;;;;4975494;28;20472;-71
2022/08/09 10:41:51;;;;;;;4.18;1.73;;;12.20;99.90;;;;;;4976262;28;20109;-74
2022/08/09 10:44:23;;;;;;;5.10;0.80;;;12.30;99.90;;;;;;4974402;28;20522;-74
2022/08/09 10:47:17;;;;;;;1.77;0.80;;;12.20;99.90;;;;;;4974404;28;20018;-72
2022/08/09 10:50:02;;;;;;;2.22;1.05;;;12.20;99.90;;;;;;4972628;28;20030;-73
2022/08/09 10:52:48;;;;;;;3.05;0.90;;;12.20;99.90;;;;;;4975445;28;20048;-73
2022/08/09 10:55:26;;;;;;;2.53;1.05;;;12.20;99.90;;;;;;4974430;28;20105;-72
2022/08/09 10:57:56;;;;;;;1.38;0.80;;;12.20;99.90;;;;;;4973911;28;20101;-73
2022/08/09 11:00:29;;;;;;;3.13;1.05;;;12.20;99.90;;;;;;4973715;28;20097;-72
2022/08/09 11:02:57;;;;;;;4.22;0.70;;;12.20;99.90;;;;;;4976177;28;20724;-71
2022/08/09 11:05:28;;;;;;;2.60;0.85;;;12.10;99.90;;;;;;4973449;28;20037;-69
2022/08/09 11:07:55;;;;;;;2.22;1.00;;;12.10;99.90;;;;;;4973118;28;20486;-69
2022/08/09 11:10:48;;;;;;;4.30;1.00;;;12.10;99.90;;;;;;4975783;28;20121;-70
2022/08/09 11:13:18;;;;;;;10.38;7.35;;;12.10;99.90;;;;;;4977744;28;20034;-71
2022/08/09 11:15:45;;;;;;;26.13;23.58;;;12.10;99.90;;;;;;4975923;28;20034;-71
2022/08/09 11:18:42;;;;;;;3.72;2.20;;;12.10;99.90;;;;;;4977391;28;20483;-70
2022/08/09 11:21:29;;;;;;;4.60;1.60;;;12.10;99.90;;;;;;4976695;28;20026;-72
2022/08/09 11:24:01;;;;;;;2.08;1.00;;;12.10;99.90;;;;;;4975792;28;20030;-70
2022/08/09 11:26:41;;;;;;;3.00;1.00;;;12.10;99.90;;;;;;4976410;28;20023;-70
2022/08/09 11:29:28;;;;;;;3.95;3.25;;;12.00;99.90;;;;;;4976378;28;20430;-71
2022/08/09 11:31:55;;;;;;;1.63;1.15;;;12.00;99.90;;;;;;4976698;28;20038;-71
2022/08/09 11:34:27;;;;;;;3.20;1.80;;;12.10;99.90;;;;;;4977110;28;20930;-70
2022/08/09 11:36:57;;;;;;;4.80;1.70;;;12.00;99.90;;;;;;4975876;28;20698;-70
2022/08/09 11:39:24;;;;;;;4.97;1.23;;;12.00;99.90;;;;;;4974919;28;20038;-69
2022/08/09 11:41:52;;;;;;;4.65;2.22;;;12.00;99.90;;;;;;4975875;28;20438;-70
2022/08/09 11:44:20;;;;;;;5.97;3.95;;;11.90;99.90;;;;;;4981095;28;20128;-69
2022/08/09 11:46:56;;;;;;;5.70;3.00;;;11.90;99.90;;;;;;4980167;28;20019;-72
2022/08/09 11:49:57;;;;;;;3.42;1.17;;;12.00;99.90;;;;;;4982055;28;20113;-70
2022/08/09 11:52:26;;;;;;;5.10;1.85;;;12.00;99.90;;;;;;4990310;28;20034;-69
2022/08/09 11:55:32;;;;;;;3.55;1.20;;;11.90;99.90;;;;;;4979700;28;20026;-69
2022/08/09 11:58:27;;;;;;;2.58;1.08;;;12.00;99.90;;;;;;4978187;28;20042;-71
2022/08/09 12:01:14;;;;;;;3.88;1.10;;;11.90;99.90;;;;;;4983910;28;20031;-69
2022/08/09 12:03:44;;;;;;;2.90;0.98;;;12.00;99.90;;;;;;4979637;28;20061;-70
2022/08/09 12:06:15;;;;;;;2.47;0.98;;;11.90;99.90;;;;;;4981072;28;20435;-72
2022/08/09 12:08:51;;;;;;;2.13;1.13;;;11.90;99.90;;;;;;4980368;28;20021;-72
2022/08/09 12:11:21;;;;;;;3.63;1.15;;;12.00;99.90;;;;;;4976719;28;20018;-71
2022/08/09 12:13:58;;;;;;;3.97;1.52;;;11.90;99.90;;;;;;4978219;28;20026;-73
2022/08/09 12:16:31;;;;;;;5.60;1.40;;;11.90;99.90;;;;;;4977623;28;20475;-71
2022/08/09 12:19:01;;;;;;;4.88;1.60;;;12.00;99.90;;;;;;4979411;28;20029;-73
2022/08/09 12:21:31;;;;;;;5.20;1.80;;;12.00;99.90;;;;;;4980372;28;20113;-71
2022/08/09 12:24:01;;;;;;;2.05;1.00;;;12.00;99.90;;;;;;4979731;28;20034;-71
2022/08/09 12:26:55;;;;;;;3.60;1.10;;;11.90;99.90;;;;;;4980618;28;20086;-72
2022/08/09 12:29:24;;;;;;;3.78;2.05;;;11.90;99.90;;;;;;4979749;28;20062;-70
2022/08/09 12:32:09;;;;;;;2.80;1.50;;;11.80;99.90;;;;;;4979411;28;20022;-69
2022/08/09 12:34:39;;;;;;;4.00;1.33;;;11.80;99.90;;;;;;4979432;28;20027;-72
2022/08/09 12:37:08;;;;;;;2.20;1.40;;;11.80;99.90;;;;;;4971062;28;20026;-73
2022/08/09 12:39:35;;;;;;;3.15;1.80;;;11.80;99.90;;;;;;4979729;28;20026;-70
2022/08/09 12:42:11;;;;;;;2.45;1.60;;;11.80;99.90;;;;;;4977865;28;20812;-71
2022/08/09 12:44:40;;;;;;;4.07;2.30;;;11.70;99.90;;;;;;4979353;28;20379;-69
2022/08/09 12:47:08;;;;;;;4.28;1.80;;;11.70;99.90;;;;;;4978828;28;20023;-71
2022/08/09 12:49:38;;;;;;;2.95;1.58;;;11.70;99.90;;;;;;4979263;28;20827;-70
2022/08/09 12:52:05;;;;;;;2.72;2.42;;;11.70;99.90;;;;;;4977574;28;20023;-72
2022/08/09 12:54:56;;;;;;;3.20;1.35;;;11.70;99.90;;;;;;4977090;28;20081;-72
2022/08/09 12:57:45;;;;;;;3.33;1.65;;;11.80;99.90;;;;;;4977547;28;20163;-71
2022/08/09 13:00:22;;;;;;;4.97;2.30;;;11.80;99.90;;;;;;4975938;28;20015;-69
2022/08/09 13:03:02;;;;;;;3.47;1.35;;;11.80;99.90;;;;;;4976135;28;20089;-73
2022/08/09 13:05:49;;;;;;;3.67;1.30;;;11.70;99.90;;;;;;4975250;28;20080;-72